Time;durP1;ratioP1;P1;durP2;ratioP2;P2;SDS_P1;SDS_P2;PMS_P1;PMS_P2;Temp;Humidity;BMP_temperature;BMP_pressure;BME280_temperature;BME280_humidity;BME280_pressure;Samples;Min_cycle;Max_cycle;Signal;HPM_P1;HPM_P2
2022/05/13 00:01:51;;;;;;;39.97;9.70;;;;;;;;;;5055433;28;20078;-78
2022/05/13 00:04:17;;;;;;;37.45;8.50;;;;;;;;;;5055206;28;20052;-77
2022/05/13 00:06:43;;;;;;;37.55;8.30;;;;;;;;;;5038776;28;20484;-77
2022/05/13 00:09:10;;;;;;;36.38;7.30;;;;;;;;;;5054995;28;20480;-78
2022/05/13 00:11:36;;;;;;;44.25;8.48;;;;;;;;;;5071933;28;20049;-77
2022/05/13 00:14:02;;;;;;;42.00;7.30;;;;;;;;;;5055552;28;20044;-77
2022/05/13 00:16:28;;;;;;;40.50;7.55;;;;;;;;;;5071959;28;20056;-77
2022/05/13 00:18:54;;;;;;;41.33;7.65;;;;;;;;;;5055242;28;20044;-78
2022/05/13 00:21:20;;;;;;;37.35;7.80;;;;;;;;;;5071846;28;20124;-78
2022/05/13 00:23:47;;;;;;;48.25;9.90;;;13.90;99.30;;;;;;5055183;28;20045;-77
2022/05/13 00:26:16;;;;;;;41.53;8.75;;;;;;;;;;5071690;28;20045;-78
2022/05/13 00:28:42;;;;;;;41.15;7.43;;;;;;;;;;5071710;28;20044;-77
2022/05/13 00:31:08;;;;;;;31.35;7.35;;;;;;;;;;5072012;28;20036;-77
2022/05/13 00:33:34;;;;;;;34.10;8.25;;;;;;;;;;5071696;28;20047;-79
2022/05/13 00:36:00;;;;;;;38.90;7.40;;;;;;;;;;5071726;28;20044;-78
2022/05/13 00:38:26;;;;;;;46.58;7.45;;;;;;;;;;5071805;28;20043;-78
2022/05/13 00:40:52;;;;;;;45.50;7.95;;;;;;;;;;5071813;28;20036;-78
2022/05/13 00:43:42;;;;;;;51.03;7.85;;;13.60;99.50;;;;;;5071843;28;20037;-78
2022/05/13 00:46:09;;;;;;;34.83;7.13;;;;;;;;;;5055183;28;20040;-78
2022/05/13 00:48:35;;;;;;;48.03;7.82;;;;;;;;;;5071636;28;20102;-78
2022/05/13 00:51:01;;;;;;;37.88;7.05;;;;;;;;;;5071891;28;20036;-78
2022/05/13 00:53:27;;;;;;;50.35;7.82;;;;;;;;;;5071845;28;20040;-78
2022/05/13 00:55:53;;;;;;;43.40;8.40;;;13.60;99.90;;;;;;5071508;28;20549;-78
2022/05/13 00:58:21;;;;;;;43.45;7.80;;;13.40;99.80;;;;;;5071562;28;20437;-78
2022/05/13 01:00:47;;;;;;;40.70;7.05;;;;;;;;;;5055604;28;20438;-78
2022/05/13 01:03:14;;;;;;;45.60;8.85;;;;;;;;;;5058882;28;20051;-77
2022/05/13 01:05:44;;;;;;;45.90;7.65;;;;;;;;;;5075598;28;20052;-78
2022/05/13 01:08:12;;;;;;;42.30;7.38;;;13.70;99.90;;;;;;5075423;28;20044;-77
2022/05/13 01:10:39;;;;;;;43.50;7.13;;;13.70;99.90;;;;;;5075133;28;20127;-77
2022/05/13 01:13:10;;;;;;;42.58;7.85;;;13.50;99.90;;;;;;5075196;28;20051;-77
2022/05/13 01:15:40;;;;;;;43.92;8.85;;;13.60;99.90;;;;;;5075088;28;20431;-77
2022/05/13 01:18:06;;;;;;;39.40;7.97;;;13.60;99.90;;;;;;5075023;28;20046;-77
2022/05/13 01:20:34;;;;;;;44.97;7.35;;;;;;;;;;5042117;28;20090;-78
2022/05/13 01:23:12;;;;;;;50.40;8.57;;;;;;;;;;5074965;28;20044;-78
2022/05/13 01:25:44;;;;;;;48.10;7.97;;;13.60;99.90;;;;;;5058092;28;20131;-78
2022/05/13 01:28:15;;;;;;;36.65;7.50;;;;;;;;;;5074953;28;20051;-78
2022/05/13 01:30:45;;;;;;;47.38;9.07;;;13.70;99.90;;;;;;5074894;28;20124;-78
2022/05/13 01:33:11;;;;;;;45.15;8.93;;;;;;;;;;5075172;28;20122;-78
2022/05/13 01:35:39;;;;;;;47.08;9.27;;;;;;;;;;5058434;28;20107;-78
2022/05/13 01:38:05;;;;;;;60.50;9.23;;;;;;;;;;5074780;28;20484;-78
2022/05/13 01:40:31;;;;;;;46.90;8.75;;;;;;;;;;5074609;28;20045;-78
2022/05/13 01:42:57;;;;;;;47.95;8.43;;;;;;;;;;5074634;28;20115;-77
2022/05/13 01:45:23;;;;;;;42.70;8.50;;;;;;;;;;5074514;28;20063;-78
2022/05/13 01:47:49;;;;;;;56.95;9.63;;;;;;;;;;5074535;28;20044;-78
2022/05/13 01:50:16;;;;;;;51.95;8.45;;;;;;;;;;5074538;28;20041;-79
2022/05/13 01:52:42;;;;;;;53.03;8.95;;;;;;;;;;5074509;28;20393;-78
2022/05/13 01:55:08;;;;;;;46.85;9.35;;;;;;;;;;5074606;28;20128;-78
2022/05/13 01:57:34;;;;;;;48.88;8.98;;;;;;;;;;5074344;28;20392;-78
2022/05/13 02:00:01;;;;;;;48.13;9.38;;;;;;;;;;5058044;28;20045;-78
2022/05/13 02:02:27;;;;;;;60.67;10.07;;;;;;;;;;5074743;28;20514;-78
2022/05/13 02:04:53;;;;;;;56.05;9.23;;;;;;;;;;5074096;28;20040;-78
2022/05/13 02:07:19;;;;;;;53.15;10.80;;;;;;;;;;5074112;28;20032;-78
2022/05/13 02:09:45;;;;;;;65.60;12.48;;;;;;;;;;5074122;28;20060;-78
2022/05/13 02:12:11;;;;;;;46.50;10.00;;;;;;;;;;5073556;28;20045;-78
2022/05/13 02:14:38;;;;;;;46.25;9.52;;;;;;;;;;5073899;28;20044;-78
2022/05/13 02:17:04;;;;;;;49.63;9.95;;;;;;;;;;5057222;28;20036;-78
2022/05/13 02:19:30;;;;;;;50.40;10.50;;;;;;;;;;5057603;28;20117;-75
2022/05/13 02:21:56;;;;;;;53.70;9.60;;;;;;;;;;5074088;28;20106;-75
2022/05/13 02:24:22;;;;;;;50.03;9.40;;;;;;;;;;5073978;28;20081;-75
2022/05/13 02:26:48;;;;;;;52.78;8.95;;;;;;;;;;5057357;28;20455;-75
2022/05/13 02:29:14;;;;;;;56.35;10.48;;;;;;;;;;5057517;28;20045;-75
2022/05/13 02:31:40;;;;;;;45.55;9.88;;;;;;;;;;5073998;28;20120;-75
2022/05/13 02:34:06;;;;;;;44.17;8.80;;;;;;;;;;5073647;28;20044;-75
2022/05/13 02:36:33;;;;;;;45.78;8.50;;;;;;;;;;5040409;28;20136;-75
2022/05/13 02:38:59;;;;;;;59.10;9.05;;;;;;;;;;5073804;28;20076;-74
2022/05/13 02:41:25;;;;;;;44.85;8.73;;;;;;;;;;5073776;28;20417;-75
2022/05/13 02:43:53;;;;;;;47.97;7.78;;;;;;;;;;5073699;28;20036;-75
2022/05/13 02:46:29;;;;;;;58.38;9.23;;;13.40;99.90;;;;;;5073504;28;20048;-75
2022/05/13 02:48:55;;;;;;;42.22;7.45;;;;;;;;;;5073416;28;20039;-75
2022/05/13 02:51:21;;;;;;;48.08;8.38;;;13.20;99.90;;;;;;5056626;28;20477;-74
2022/05/13 02:53:48;;;;;;;40.45;8.35;;;13.40;99.90;;;;;;5073327;28;20153;-75
2022/05/13 02:56:14;;;;;;;42.60;7.97;;;;;;;;;;5073263;28;20044;-75
2022/05/13 02:58:41;;;;;;;41.00;8.88;;;;;;;;;;5073381;28;20044;-75
2022/05/13 03:01:08;;;;;;;44.67;7.90;;;;;;;;;;5056682;28;20048;-75
2022/05/13 03:03:36;;;;;;;45.38;7.57;;;13.40;99.90;;;;;;5072920;28;20048;-75
2022/05/13 03:06:02;;;;;;;39.60;7.75;;;;;;;;;;5073037;28;20125;-75
2022/05/13 03:08:29;;;;;;;36.92;7.10;;;;;;;;;;5072869;28;20047;-75
2022/05/13 03:10:55;;;;;;;36.55;7.18;;;;;;;;;;5072975;28;20072;-75
2022/05/13 03:13:21;;;;;;;41.60;8.75;;;;;;;;;;5056818;28;20366;-75
2022/05/13 03:15:48;;;;;;;43.17;8.10;;;;;;;;;;5056751;28;20082;-75
2022/05/13 03:18:14;;;;;;;38.72;7.75;;;13.30;99.90;;;;;;5056440;28;20103;-75
2022/05/13 03:20:40;;;;;;;41.35;7.28;;;13.30;99.90;;;;;;5073065;28;20118;-74
2022/05/13 03:23:07;;;;;;;39.47;7.80;;;;;;;;;;5073070;28;20048;-75
2022/05/13 03:25:33;;;;;;;52.45;7.47;;;;;;;;;;5072417;28;20040;-75
2022/05/13 03:27:59;;;;;;;35.67;6.57;;;;;;;;;;5072960;28;20399;-75
2022/05/13 03:30:26;;;;;;;59.90;8.18;;;;;;;;;;5072827;28;20032;-75
2022/05/13 03:32:53;;;;;;;33.53;7.20;;;13.20;99.90;;;;;;5072490;28;20139;-75
2022/05/13 03:35:20;;;;;;;31.15;6.97;;;13.40;99.90;;;;;;5055897;28;20044;-75
2022/05/13 03:37:46;;;;;;;37.78;6.88;;;;;;;;;;5072494;28;20120;-75
2022/05/13 03:40:14;;;;;;;34.03;7.55;;;13.10;99.90;;;;;;5072711;28;20071;-75
2022/05/13 03:42:40;;;;;;;42.13;7.90;;;;;;;;;;5055747;28;20044;-75
2022/05/13 03:45:08;;;;;;;33.33;7.45;;;13.00;99.90;;;;;;5072113;28;20040;-75
2022/05/13 03:47:34;;;;;;;40.17;7.85;;;;;;;;;;5072515;28;20370;-78
2022/05/13 03:50:00;;;;;;;36.38;7.43;;;;;;;;;;5072232;28;20488;-78
2022/05/13 03:52:26;;;;;;;39.13;6.60;;;;;;;;;;5055590;28;20040;-74
2022/05/13 03:54:53;;;;;;;39.92;6.15;;;;;;;;;;5072170;28;20047;-75
2022/05/13 03:57:19;;;;;;;29.60;6.22;;;;;;;;;;5055745;28;20370;-74
2022/05/13 03:59:45;;;;;;;22.92;4.55;;;;;;;;;;5072055;28;20098;-75
2022/05/13 04:02:11;;;;;;;22.27;5.85;;;;;;;;;;5055480;28;20128;-75
2022/05/13 04:10:08;;;;;;;22.52;4.78;;;13.20;99.80;;;;;;5071758;28;20087;-75
2022/05/13 04:18:03;;;;;;;29.17;5.18;;;;;;;;;;5071913;28;20041;-75
2022/05/13 04:20:30;;;;;;;19.15;4.43;;;;;;;;;;5071861;28;20051;-75
2022/05/13 04:22:56;;;;;;;24.55;4.97;;;;;;;;;;5055064;28;20094;-75
2022/05/13 04:25:23;;;;;;;27.52;4.50;;;;;;;;;;5071821;28;20040;-75
2022/05/13 04:27:49;;;;;;;18.73;4.95;;;;;;;;;;5072158;28;20365;-75
2022/05/13 04:30:15;;;;;;;26.80;5.35;;;;;;;;;;5038692;28;20040;-75
2022/05/13 04:32:42;;;;;;;19.35;4.82;;;;;;;;;;5055149;28;20040;-75
2022/05/13 04:35:08;;;;;;;16.80;5.15;;;;;;;;;;5055052;28;20567;-75
2022/05/13 04:37:37;;;;;;;24.80;4.45;;;;;;;;;;5058590;28;20041;-75
2022/05/13 04:40:03;;;;;;;22.70;4.97;;;;;;;;;;5076098;28;20049;-75
2022/05/13 04:45:14;;;;;;;19.45;4.80;;;;;;;;;;5075785;28;20080;-75
2022/05/13 04:50:24;;;;;;;22.20;4.03;;;;;;;;;;5075809;28;20041;-75
2022/05/13 04:52:50;;;;;;;19.63;3.63;;;;;;;;;;5075701;28;20558;-74
2022/05/13 04:55:16;;;;;;;20.92;6.20;;;;;;;;;;5075948;28;20190;-75
2022/05/13 04:57:42;;;;;;;22.25;4.43;;;;;;;;;;5075538;28;20128;-75
2022/05/13 05:00:09;;;;;;;15.55;4.22;;;;;;;;;;5075422;28;20493;-75
2022/05/13 05:02:35;;;;;;;17.38;4.03;;;;;;;;;;5058964;28;20127;-75
2022/05/13 05:05:01;;;;;;;16.73;4.40;;;;;;;;;;5058511;28;20048;-74
2022/05/13 05:07:27;;;;;;;12.55;4.32;;;;;;;;;;5058450;28;20068;-74
2022/05/13 05:09:53;;;;;;;13.10;4.05;;;;;;;;;;5075084;28;20131;-74
2022/05/13 05:12:19;;;;;;;19.65;4.47;;;;;;;;;;5075113;28;20051;-74
2022/05/13 05:14:45;;;;;;;20.67;4.38;;;;;;;;;;5075380;28;20093;-74
2022/05/13 05:17:11;;;;;;;22.80;5.00;;;;;;;;;;5075010;28;20037;-74
2022/05/13 05:19:38;;;;;;;20.65;4.43;;;;;;;;;;5041860;28;20049;-74
2022/05/13 05:22:07;;;;;;;31.27;4.80;;;;;;;;;;5058682;28;20055;-75
2022/05/13 05:24:33;;;;;;;25.08;4.88;;;;;;;;;;5074906;28;20051;-74
2022/05/13 05:26:59;;;;;;;28.05;5.20;;;;;;;;;;5041650;28;20033;-75
2022/05/13 05:29:26;;;;;;;18.45;4.13;;;;;;;;;;5058069;28;20090;-74
2022/05/13 05:31:52;;;;;;;31.40;5.13;;;;;;;;;;5075079;28;20045;-75
2022/05/13 05:34:18;;;;;;;18.02;5.57;;;;;;;;;;5074693;28;20048;-75
2022/05/13 05:36:44;;;;;;;25.15;4.80;;;;;;;;;;5058204;28;20062;-75
2022/05/13 05:39:10;;;;;;;18.17;4.35;;;13.50;98.40;;;;;;5058070;28;20048;-75
2022/05/13 05:41:37;;;;;;;26.92;5.28;;;;;;;;;;5057957;28;20045;-75
2022/05/13 05:44:03;;;;;;;22.02;4.78;;;;;;;;;;5074706;28;20132;-75
2022/05/13 05:46:29;;;;;;;21.88;4.38;;;;;;;;;;5074616;28;20040;-74
2022/05/13 05:48:55;;;;;;;22.88;5.45;;;;;;;;;;5074674;28;20067;-76
2022/05/13 05:51:21;;;;;;;22.70;4.57;;;;;;;;;;5074766;28;20049;-75
2022/05/13 05:59:16;;;;;;;29.98;5.85;;;;;;;;;;5074354;28;20051;-74
2022/05/13 06:01:43;;;;;;;18.52;4.38;;;;;;;;;;5057744;28;20048;-75
2022/05/13 06:04:09;;;;;;;16.98;4.22;;;;;;;;;;5074171;28;20123;-75
2022/05/13 06:06:35;;;;;;;20.92;4.28;;;;;;;;;;5074102;28;20446;-74
2022/05/13 06:09:01;;;;;;;18.67;4.50;;;;;;;;;;5073869;28;20049;-75
2022/05/13 06:11:29;;;;;;;16.52;4.30;;;;;;;;;;5057969;28;20143;-74
2022/05/13 06:13:56;;;;;;;19.52;4.03;;;;;;;;;;5075376;28;20109;-74
2022/05/13 06:16:23;;;;;;;19.00;4.03;;;;;;;;;;5073965;28;20056;-75
2022/05/13 06:18:49;;;;;;;24.35;4.30;;;;;;;;;;5057387;28;20044;-75
2022/05/13 06:21:15;;;;;;;19.98;3.88;;;;;;;;;;5074194;28;20040;-75
2022/05/13 06:23:41;;;;;;;23.52;4.07;;;;;;;;;;5073721;28;20567;-75
2022/05/13 06:26:07;;;;;;;16.02;3.63;;;;;;;;;;5074075;28;20040;-74
2022/05/13 06:28:34;;;;;;;16.83;5.05;;;;;;;;;;5073756;28;20488;-74
2022/05/13 06:31:00;;;;;;;17.48;4.32;;;;;;;;;;5074243;28;20048;-74
2022/05/13 06:33:26;;;;;;;18.70;3.53;;;;;;;;;;5073696;28;20496;-74
2022/05/13 06:35:52;;;;;;;15.98;4.30;;;;;;;;;;5073987;28;20036;-74
2022/05/13 06:38:21;;;;;;;22.65;3.85;;;13.60;98.30;;;;;;5073403;28;20041;-75
2022/05/13 06:40:48;;;;;;;18.42;3.25;;;;;;;;;;5056917;28;20048;-74
2022/05/13 06:43:14;;;;;;;18.30;3.80;;;;;;;;;;5040303;28;20479;-75
2022/05/13 06:45:41;;;;;;;18.25;3.70;;;;;;;;;;5073328;28;20386;-75
2022/05/13 06:48:07;;;;;;;23.52;4.40;;;;;;;;;;5073653;28;20037;-75
2022/05/13 06:50:33;;;;;;;17.15;3.40;;;;;;;;;;5057106;28;20044;-75
2022/05/13 06:53:00;;;;;;;20.45;3.35;;;;;;;;;;5073404;28;20037;-74
2022/05/13 06:55:26;;;;;;;21.90;3.75;;;;;;;;;;5073414;28;20044;-74
2022/05/13 06:57:52;;;;;;;35.92;4.05;;;;;;;;;;5056463;28;20040;-74
2022/05/13 07:00:18;;;;;;;19.48;3.38;;;14.70;99.90;;;;;;5072992;28;20489;-75
2022/05/13 07:02:44;;;;;;;17.45;3.88;;;;;;;;;;5056643;28;20048;-74
2022/05/13 07:05:16;;;;;;;23.02;3.40;;;13.90;98.10;;;;;;5056312;28;20048;-74
2022/05/13 07:07:42;;;;;;;14.23;4.37;;;;;;;;;;5072926;28;20074;-75
2022/05/13 07:10:08;;;;;;;24.48;3.70;;;;;;;;;;5072869;28;20535;-76
2022/05/13 07:12:34;;;;;;;11.82;3.00;;;;;;;;;;5056273;28;20043;-75
2022/05/13 07:15:03;;;;;;;23.50;3.67;;;;;;;;;;5072855;28;20036;-78
2022/05/13 07:17:29;;;;;;;23.45;3.22;;;;;;;;;;5072928;28;20439;-77
2022/05/13 07:19:55;;;;;;;19.00;3.53;;;;;;;;;;5056607;28;20483;-77
2022/05/13 07:22:21;;;;;;;17.48;3.92;;;;;;;;;;5056449;28;20041;-77
2022/05/13 07:24:48;;;;;;;19.08;3.47;;;;;;;;;;5056140;28;20041;-77
2022/05/13 07:27:14;;;;;;;21.95;3.63;;;;;;;;;;5072803;28;20558;-77
2022/05/13 07:29:41;;;;;;;25.88;3.75;;;;;;;;;;5072908;28;20044;-77
2022/05/13 07:32:07;;;;;;;25.45;3.58;;;;;;;;;;5072735;28;20048;-77
2022/05/13 07:34:33;;;;;;;14.93;3.70;;;;;;;;;;5072643;28;20500;-78
2022/05/13 07:36:59;;;;;;;17.55;3.42;;;;;;;;;;5056269;28;20110;-77
2022/05/13 07:42:10;;;;;;;17.73;4.47;;;14.10;97.40;;;;;;5072621;28;20044;-77
2022/05/13 07:44:37;;;;;;;14.80;3.85;;;;;;;;;;5039009;28;20098;-77
2022/05/13 07:47:04;;;;;;;25.40;3.70;;;;;;;;;;5039075;28;20037;-78
2022/05/13 07:49:30;;;;;;;21.25;4.00;;;;;;;;;;5072549;28;20043;-78
2022/05/13 07:51:56;;;;;;;20.65;3.42;;;;;;;;;;5055902;28;20040;-78
2022/05/13 07:54:22;;;;;;;16.10;3.83;;;;;;;;;;5055681;28;20090;-78
2022/05/13 07:56:48;;;;;;;17.33;3.55;;;;;;;;;;5055602;28;20131;-78
2022/05/13 07:59:14;;;;;;;14.82;3.65;;;;;;;;;;5072203;28;20040;-79
2022/05/13 08:01:40;;;;;;;15.32;3.17;;;;;;;;;;5055538;28;20122;-78
2022/05/13 08:04:06;;;;;;;16.33;3.70;;;;;;;;;;5072022;28;20131;-78
2022/05/13 08:06:32;;;;;;;17.77;3.78;;;;;;;;;;5071897;28;20041;-78
2022/05/13 08:08:59;;;;;;;19.02;3.45;;;;;;;;;;5071990;28;20056;-78
2022/05/13 08:11:30;;;;;;;19.23;3.67;;;14.50;97.40;;;;;;5071221;28;20097;-78
2022/05/13 08:13:57;;;;;;;31.00;4.13;;;;;;;;;;5072199;28;20472;-78
2022/05/13 08:16:26;;;;;;;24.80;3.78;;;14.60;97.00;;;;;;5071732;28;20407;-78
2022/05/13 08:18:57;;;;;;;14.73;3.20;;;14.70;96.90;;;;;;5055069;28;20036;-77
2022/05/13 08:21:23;;;;;;;14.63;3.10;;;;;;;;;;5055169;28;20534;-78
2022/05/13 08:23:50;;;;;;;16.90;3.67;;;;;;;;;;5071981;28;20037;-78
2022/05/13 08:26:16;;;;;;;15.68;2.90;;;;;;;;;;5055395;28;20040;-78
2022/05/13 08:28:42;;;;;;;12.55;2.80;;;;;;;;;;5071656;28;20094;-78
2022/05/13 08:31:09;;;;;;;23.10;4.00;;;;;;;;;;5055266;28;20088;-78
2022/05/13 08:33:36;;;;;;;18.42;4.22;;;;;;;;;;5055300;28;20051;-78
2022/05/13 08:36:04;;;;;;;17.02;3.97;;;15.10;96.30;;;;;;5072021;28;20489;-78
2022/05/13 08:38:32;;;;;;;14.38;3.75;;;;;;;;;;5071553;28;20040;-78
2022/05/13 08:41:05;;;;;;;26.25;4.63;;;;;;;;;;5071494;28;20083;-78
2022/05/13 08:43:46;;;;;;;21.67;4.68;;;15.30;95.60;;;;;;5071932;28;20049;-78
2022/05/13 08:46:31;;;;;;;20.67;3.88;;;;;;;;;;5055224;28;20123;-78
2022/05/13 08:48:57;;;;;;;19.83;3.75;;;;;;;;;;5071573;28;20036;-78
2022/05/13 08:51:49;;;;;;;18.35;3.53;;;15.60;96.10;;;;;;5071536;28;20123;-78
2022/05/13 08:54:18;;;;;;;16.35;3.58;;;15.60;95.50;;;;;;5071541;28;20044;-79
2022/05/13 08:56:50;;;;;;;19.58;3.33;;;16.00;95.30;;;;;;5071523;28;20048;-79
2022/05/13 08:59:41;;;;;;;26.70;3.97;;;15.90;95.60;;;;;;5054767;28;20472;-78
2022/05/13 09:02:13;;;;;;;34.08;4.40;;;;;;;;;;5071179;28;20404;-78
2022/05/13 09:04:45;;;;;;;22.42;4.55;;;15.60;95.20;;;;;;5054720;28;20052;-78
2022/05/13 09:07:19;;;;;;;17.35;4.03;;;;;;;;;;5071806;28;20106;-78
2022/05/13 09:09:50;;;;;;;33.78;4.70;;;15.80;95.40;;;;;;5071129;28;20057;-78
2022/05/13 09:13:01;;;;;;;28.77;4.88;;;16.00;95.60;;;;;;5071238;28;20037;-78
2022/05/13 09:15:42;;;;;;;27.80;4.68;;;15.60;95.70;;;;;;5043850;28;20516;-78
2022/05/13 09:18:34;;;;;;;23.73;4.30;;;15.80;95.80;;;;;;5071348;28;20044;-77
2022/05/13 09:21:16;;;;;;;14.70;4.03;;;15.80;95.60;;;;;;5071299;28;20120;-78
2022/05/13 09:23:42;;;;;;;34.45;5.32;;;;;;;;;;5074676;28;20051;-78
2022/05/13 09:26:15;;;;;;;23.67;4.07;;;;;;;;;;5075230;28;20439;-76
2022/05/13 09:29:00;;;;;;;21.35;4.07;;;15.80;94.70;;;;;;5075029;28;20119;-74
2022/05/13 09:31:28;;;;;;;19.92;5.18;;;;;;;;;;5074829;28;20488;-75
2022/05/13 09:33:54;;;;;;;23.10;4.22;;;;;;;;;;5075111;28;20090;-75
2022/05/13 09:36:22;;;;;;;24.15;4.55;;;;;;;;;;5074787;28;20036;-75
2022/05/13 09:38:52;;;;;;;17.25;3.65;;;16.10;94.70;;;;;;5057919;28;20503;-75
2022/05/13 09:41:44;;;;;;;18.33;4.45;;;16.20;95.00;;;;;;5074675;28;20040;-74
2022/05/13 09:44:19;;;;;;;23.30;4.40;;;;;;;;;;5055210;28;20102;-75
2022/05/13 09:46:47;;;;;;;26.67;3.70;;;;;;;;;;5074624;28;20124;-75
2022/05/13 09:49:13;;;;;;;18.25;4.15;;;;;;;;;;5058240;28;20045;-75
2022/05/13 09:51:53;;;;;;;23.85;4.72;;;16.20;94.60;;;;;;5074564;28;20076;-74
2022/05/13 09:54:27;;;;;;;27.08;4.60;;;15.70;98.40;;;;;;5074487;28;20052;-74
2022/05/13 09:57:21;;;;;;;19.48;4.05;;;16.20;95.10;;;;;;5074450;28;20093;-75
2022/05/13 09:59:53;;;;;;;21.88;4.13;;;;;;;;;;5074708;28;20123;-75
2022/05/13 10:02:31;;;;;;;12.95;3.78;;;16.50;94.60;;;;;;5074660;28;20127;-75
2022/05/13 10:05:27;;;;;;;18.63;4.72;;;16.60;94.50;;;;;;5057682;28;20043;-76
2022/05/13 10:07:58;;;;;;;18.50;3.97;;;;;;;;;;5061475;28;20081;-76
2022/05/13 10:16:22;;;;;;;22.17;4.22;;;17.30;92.70;;;;;;5074093;28;20101;-75
2022/05/13 10:19:05;;;;;;;25.13;4.50;;;17.40;92.80;;;;;;5074102;28;20076;-75
2022/05/13 10:21:57;;;;;;;29.92;4.55;;;17.60;92.70;;;;;;5074045;28;20052;-75
2022/05/13 10:24:29;;;;;;;21.55;4.40;;;17.40;91.50;;;;;;5074274;28;20080;-76
2022/05/13 10:26:57;;;;;;;19.45;4.50;;;17.30;92.30;;;;;;5057202;28;20492;-76
2022/05/13 10:29:37;;;;;;;26.20;5.10;;;17.30;92.60;;;;;;5074005;28;20040;-75
2022/05/13 10:32:14;;;;;;;25.23;4.47;;;17.20;92.50;;;;;;5073932;28;20056;-75
2022/05/13 10:34:43;;;;;;;21.10;4.55;;;;;;;;;;5073161;28;20048;-74
2022/05/13 10:37:38;;;;;;;21.17;4.80;;;17.60;92.20;;;;;;5074010;28;20109;-75
2022/05/13 10:40:12;;;;;;;26.73;5.32;;;;;;;;;;5073324;28;20075;-75
2022/05/13 10:42:47;;;;;;;17.88;3.90;;;17.60;92.00;;;;;;5073533;28;20087;-76
2022/05/13 10:45:17;;;;;;;16.70;3.45;;;;;;;;;;5073548;28;20076;-75
2022/05/13 10:47:43;;;;;;;23.45;4.07;;;;;;;;;;5073985;28;20079;-76
2022/05/13 10:50:25;;;;;;;26.80;4.93;;;16.80;92.00;;;;;;5073648;28;20039;-76
2022/05/13 10:53:06;;;;;;;23.73;5.10;;;;;;;;;;5056868;28;20503;-76
2022/05/13 10:55:58;;;;;;;30.40;5.18;;;16.30;92.50;;;;;;5073680;28;20036;-75
2022/05/13 10:58:49;;;;;;;22.02;5.00;;;17.00;92.30;;;;;;5056632;28;20492;-76
2022/05/13 11:01:52;;;;;;;21.80;4.57;;;16.70;96.60;;;;;;5073473;28;20086;-76
2022/05/13 11:04:54;;;;;;;30.33;5.63;;;16.80;92.60;;;;;;5073193;28;20186;-76
2022/05/13 11:07:32;;;;;;;24.52;4.80;;;16.80;92.50;;;;;;5072863;28;20041;-75
2022/05/13 11:10:10;;;;;;;25.50;4.78;;;16.30;96.90;;;;;;5056201;28;20603;-76
2022/05/13 11:12:54;;;;;;;16.52;4.50;;;16.90;93.70;;;;;;5073041;28;20496;-76
2022/05/13 11:16:01;;;;;;;29.38;5.20;;;17.00;93.40;;;;;;5073090;28;20076;-76
2022/05/13 11:18:42;;;;;;;33.83;5.85;;;17.80;94.50;;;;;;5072704;28;20077;-76
2022/05/13 11:21:46;;;;;;;28.90;6.20;;;17.10;93.60;;;;;;5073029;28;20040;-76
2022/05/13 11:27:25;;;;;;;19.27;3.88;;;17.60;91.60;;;;;;5072667;28;20045;-76
2022/05/13 11:30:05;;;;;;;24.33;5.28;;;17.60;92.00;;;;;;5072813;28;20365;-76
2022/05/13 11:32:52;;;;;;;23.60;4.32;;;17.60;92.10;;;;;;5072589;28;20038;-77
2022/05/13 11:35:41;;;;;;;26.50;5.32;;;17.60;91.10;;;;;;5072515;28;20040;-75
2022/05/13 11:38:19;;;;;;;27.90;5.57;;;17.60;92.30;;;;;;5072307;28;20048;-76
2022/05/13 11:40:51;;;;;;;26.77;5.10;;;;;;;;;;5055955;28;20048;-76
2022/05/13 11:43:48;;;;;;;32.10;6.45;;;17.60;92.80;;;;;;5072440;28;20044;-76
2022/05/13 11:46:14;;;;;;;31.88;5.13;;;;;;;;;;5072706;28;20378;-76
2022/05/13 11:48:46;;;;;;;19.67;4.43;;;18.60;96.10;;;;;;5072630;28;20099;-75
2022/05/13 11:51:27;;;;;;;32.90;4.57;;;;;;;;;;5072284;28;20051;-75
2022/05/13 11:53:59;;;;;;;24.10;4.97;;;16.70;90.80;;;;;;5072296;28;20500;-77
2022/05/13 11:56:29;;;;;;;21.95;5.30;;;;;;;;;;5072323;28;20048;-75
2022/05/13 11:59:11;;;;;;;18.75;4.38;;;;;;;;;;5055453;28;20044;-75
2022/05/13 12:01:37;;;;;;;31.52;4.82;;;;;;;;;;5055630;28;20046;-76
2022/05/13 12:04:12;;;;;;;28.50;5.13;;;;;;;;;;5072078;28;20048;-75
2022/05/13 12:06:50;;;;;;;31.67;5.45;;;17.50;90.60;;;;;;5072045;28;20033;-76
2022/05/13 12:09:20;;;;;;;19.10;4.22;;;17.20;91.30;;;;;;5072047;28;20044;-75
2022/05/13 12:11:57;;;;;;;25.17;4.65;;;17.30;95.70;;;;;;5055138;28;20370;-75
2022/05/13 12:14:26;;;;;;;30.17;4.78;;;;;;;;;;5072034;28;20127;-76
2022/05/13 12:17:05;;;;;;;24.50;4.47;;;;;;;;;;5072128;28;20123;-76
2022/05/13 12:19:51;;;;;;;21.50;5.13;;;16.70;95.40;;;;;;5071933;28;20558;-75
2022/05/13 12:22:30;;;;;;;26.58;4.85;;;17.40;91.90;;;;;;5072168;28;20098;-75
2022/05/13 12:24:56;;;;;;;24.63;4.43;;;;;;;;;;5071817;28;20113;-75
2022/05/13 12:27:36;;;;;;;23.30;4.63;;;;;;;;;;5072148;28;20037;-75
2022/05/13 12:30:11;;;;;;;24.85;4.82;;;;;;;;;;5071833;28;20036;-75
2022/05/13 12:32:37;;;;;;;18.20;4.32;;;;;;;;;;5072018;28;20040;-75
2022/05/13 12:37:57;;;;;;;23.60;4.53;;;17.50;90.60;;;;;;5071770;28;20052;-75
2022/05/13 12:40:23;;;;;;;28.00;5.22;;;;;;;;;;5071759;28;20048;-76
2022/05/13 12:42:55;;;;;;;25.10;4.40;;;17.60;90.30;;;;;;5071739;28;20111;-76
2022/05/13 12:45:57;;;;;;;30.35;4.53;;;17.40;91.30;;;;;;5071608;28;20037;-74
2022/05/13 12:48:22;;;;;;;27.17;4.85;;;17.40;95.30;;;;;;5047779;28;20060;-75
2022/05/13 12:50:53;;;;;;;18.83;4.28;;;17.10;90.70;;;;;;5071733;28;20598;-76
2022/05/13 12:53:31;;;;;;;22.88;3.95;;;17.60;90.20;;;;;;5071984;28;20052;-76
2022/05/13 12:56:00;;;;;;;21.20;4.43;;;17.40;91.30;;;;;;5071857;28;20048;-75
2022/05/13 12:58:28;;;;;;;22.23;4.45;;;17.30;90.30;;;;;;5074561;28;20044;-75
2022/05/13 13:00:54;;;;;;;21.30;4.18;;;;;;;;;;5075581;28;20041;-75
2022/05/13 13:03:22;;;;;;;22.35;4.32;;;17.40;90.30;;;;;;5075399;28;20041;-75
2022/05/13 13:06:02;;;;;;;23.83;3.72;;;17.20;90.80;;;;;;5058569;28;20044;-75
2022/05/13 13:08:36;;;;;;;28.35;4.63;;;18.20;94.60;;;;;;5058882;28;20036;-75
2022/05/13 13:11:04;;;;;;;25.42;5.20;;;17.30;90.60;;;;;;5075137;28;20053;-75
2022/05/13 13:13:31;;;;;;;26.75;4.55;;;;;;;;;;5076439;28;20056;-75
2022/05/13 13:15:59;;;;;;;20.35;4.43;;;;;;;;;;5058660;28;20049;-75
2022/05/13 13:18:30;;;;;;;21.88;4.53;;;16.70;93.90;;;;;;5074994;28;20044;-75
2022/05/13 13:20:59;;;;;;;21.98;3.95;;;17.90;90.00;;;;;;5058816;28;20141;-75
2022/05/13 13:23:34;;;;;;;30.90;5.13;;;17.50;90.00;;;;;;5075065;28;20048;-75
2022/05/13 13:26:02;;;;;;;24.88;5.45;;;17.90;90.30;;;;;;5058318;28;20119;-75
2022/05/13 13:28:34;;;;;;;25.58;4.80;;;17.60;90.30;;;;;;5058266;28;20056;-74
2022/05/13 13:31:02;;;;;;;24.38;4.47;;;;;;;;;;5058507;28;20048;-75
2022/05/13 13:33:31;;;;;;;41.05;4.95;;;17.60;90.10;;;;;;5074828;28;20051;-75
2022/05/13 13:36:30;;;;;;;29.45;5.07;;;18.00;90.60;;;;;;5075167;28;20106;-74
2022/05/13 13:38:58;;;;;;;21.38;4.75;;;17.80;90.00;;;;;;5075085;28;20116;-75
2022/05/13 13:41:34;;;;;;;20.35;4.55;;;18.70;93.60;;;;;;5074784;28;20048;-74
2022/05/13 13:44:03;;;;;;;26.63;4.53;;;17.90;89.50;;;;;;5058398;28;20420;-75
2022/05/13 13:46:49;;;;;;;28.10;4.68;;;18.20;90.00;;;;;;5075036;28;20492;-75
2022/05/13 13:49:35;;;;;;;22.98;4.40;;;18.00;89.50;;;;;;5075000;28;20033;-76
2022/05/13 13:52:12;;;;;;;31.42;4.40;;;18.00;88.30;;;;;;5074967;28;20033;-75
2022/05/13 13:54:58;;;;;;;28.67;4.78;;;17.40;93.60;;;;;;5057953;28;20045;-75
2022/05/13 13:57:24;;;;;;;22.90;4.25;;;;;;;;;;5074560;28;20048;-75
2022/05/13 13:59:59;;;;;;;24.30;5.32;;;;;;;;;;5074417;28;20036;-75
2022/05/13 14:02:32;;;;;;;25.60;4.55;;;18.80;93.40;;;;;;5074337;28;20041;-75
2022/05/13 14:04:59;;;;;;;27.60;4.53;;;;;;;;;;5074395;28;20060;-75
2022/05/13 14:07:25;;;;;;;25.75;4.47;;;18.90;93.30;;;;;;5074230;28;20103;-75
2022/05/13 14:09:51;;;;;;;32.13;4.30;;;;;;;;;;5056017;28;20036;-76
2022/05/13 14:12:21;;;;;;;33.03;4.90;;;18.00;87.80;;;;;;5074185;28;20045;-75
2022/05/13 14:14:54;;;;;;;18.83;3.88;;;17.90;88.30;;;;;;5074276;28;20128;-74
2022/05/13 14:17:23;;;;;;;29.30;4.68;;;18.40;93.80;;;;;;5057701;28;20044;-76
2022/05/13 14:20:08;;;;;;;31.50;4.90;;;18.50;93.70;;;;;;5074142;28;20045;-75
2022/05/13 14:23:15;;;;;;;23.55;4.70;;;17.90;90.10;;;;;;5057633;28;20047;-76
2022/05/13 14:25:54;;;;;;;21.05;3.72;;;17.50;93.50;;;;;;5073904;28;20124;-75
2022/05/13 14:28:28;;;;;;;22.08;4.68;;;17.90;89.40;;;;;;5057341;28;20048;-75
2022/05/13 14:31:18;;;;;;;19.33;4.78;;;17.70;90.10;;;;;;5057373;28;20036;-76
2022/05/13 14:33:56;;;;;;;23.25;4.13;;;18.40;93.70;;;;;;5073840;28;20048;-76
2022/05/13 14:36:32;;;;;;;28.38;5.00;;;17.60;89.80;;;;;;5057520;28;20127;-76
2022/05/13 14:41:50;;;;;;;21.27;3.53;;;;;;;;;;5073918;28;20059;-79
2022/05/13 14:44:32;;;;;;;29.08;4.95;;;18.10;88.40;;;;;;5073602;28;20080;-79